sensor_id;sensor_type;location;lat;lon;timestamp;pressure;altitude;pressure_sealevel;temperature;humidity
22580;BME280;11456;47.030;15.396;2023-04-03T00:02:22;97617.19;;;7.18;50.73
22580;BME280;11456;47.030;15.396;2023-04-03T00:04:49;97626.88;;;7.10;50.34
22580;BME280;11456;47.030;15.396;2023-04-03T00:07:15;97633.00;;;7.21;49.75
22580;BME280;11456;47.030;15.396;2023-04-03T00:09:42;97634.19;;;7.29;49.42
22580;BME280;11456;47.030;15.396;2023-04-03T00:12:08;97638.63;;;7.18;49.69
22580;BME280;11456;47.030;15.396;2023-04-03T00:14:35;97634.59;;;7.03;49.96
22580;BME280;11456;47.030;15.396;2023-04-03T00:17:01;97630.13;;;7.13;49.70
22580;BME280;11456;47.030;15.396;2023-04-03T00:19:28;97628.97;;;7.06;50.42
22580;BME280;11456;47.030;15.396;2023-04-03T00:21:54;97622.50;;;7.09;50.06
22580;BME280;11456;47.030;15.396;2023-04-03T00:24:21;97633.75;;;7.03;49.63
22580;BME280;11456;47.030;15.396;2023-04-03T00:26:48;97632.59;;;7.05;50.05
22580;BME280;11456;47.030;15.396;2023-04-03T00:29:14;97625.75;;;6.92;50.25
22580;BME280;11456;47.030;15.396;2023-04-03T00:31:41;97634.78;;;6.91;50.58
22580;BME280;11456;47.030;15.396;2023-04-03T00:34:08;97639.94;;;7.03;50.46
22580;BME280;11456;47.030;15.396;2023-04-03T00:36:34;97649.47;;;6.96;50.30
22580;BME280;11456;47.030;15.396;2023-04-03T00:39:01;97642.34;;;7.06;49.58
22580;BME280;11456;47.030;15.396;2023-04-03T00:41:28;97648.47;;;7.18;50.03
22580;BME280;11456;47.030;15.396;2023-04-03T00:43:54;97646.59;;;6.88;50.33
22580;BME280;11456;47.030;15.396;2023-04-03T00:46:21;97643.84;;;7.20;49.44
22580;BME280;11456;47.030;15.396;2023-04-03T00:48:48;97643.84;;;6.99;49.92
22580;BME280;11456;47.030;15.396;2023-04-03T00:51:19;97640.72;;;6.94;49.92
22580;BME280;11456;47.030;15.396;2023-04-03T00:53:49;97641.75;;;6.82;50.59
22580;BME280;11456;47.030;15.396;2023-04-03T00:56:17;97641.75;;;6.82;50.76
22580;BME280;11456;47.030;15.396;2023-04-03T00:58:48;97640.34;;;6.78;51.00
22580;BME280;11456;47.030;15.396;2023-04-03T01:01:16;97633.28;;;6.77;50.88
22580;BME280;11456;47.030;15.396;2023-04-03T01:03:45;97637.84;;;6.86;51.06
22580;BME280;11456;47.030;15.396;2023-04-03T01:06:13;97640.84;;;6.72;50.52
22580;BME280;11456;47.030;15.396;2023-04-03T01:08:44;97649.34;;;6.77;51.07
22580;BME280;11456;47.030;15.396;2023-04-03T01:11:13;97649.16;;;6.58;51.56
22580;BME280;11456;47.030;15.396;2023-04-03T01:13:39;97652.88;;;6.46;51.05
22580;BME280;11456;47.030;15.396;2023-04-03T01:16:07;97652.31;;;6.63;51.44
22580;BME280;11456;47.030;15.396;2023-04-03T01:18:34;97649.00;;;6.38;51.65
22580;BME280;11456;47.030;15.396;2023-04-03T01:23:47;97658.69;;;6.51;51.77
22580;BME280;11456;47.030;15.396;2023-04-03T01:26:18;97663.19;;;6.50;51.39
22580;BME280;11456;47.030;15.396;2023-04-03T01:28:45;97663.34;;;6.37;51.97
22580;BME280;11456;47.030;15.396;2023-04-03T01:31:18;97665.00;;;6.50;51.54
22580;BME280;11456;47.030;15.396;2023-04-03T01:33:47;97659.94;;;6.35;52.41
22580;BME280;11456;47.030;15.396;2023-04-03T01:36:15;97665.56;;;6.32;52.20
22580;BME280;11456;47.030;15.396;2023-04-03T01:38:42;97664.97;;;6.61;51.84
22580;BME280;11456;47.030;15.396;2023-04-03T01:41:09;97665.56;;;6.32;52.40
22580;BME280;11456;47.030;15.396;2023-04-03T01:43:36;97659.34;;;6.32;52.84
22580;BME280;11456;47.030;15.396;2023-04-03T01:46:03;97665.31;;;6.24;52.26
22580;BME280;11456;47.030;15.396;2023-04-03T01:48:29;97675.19;;;6.13;53.50
22580;BME280;11456;47.030;15.396;2023-04-03T01:50:56;97665.56;;;6.21;53.14
22580;BME280;11456;47.030;15.396;2023-04-03T01:53:22;97666.22;;;6.14;52.81
22580;BME280;11456;47.030;15.396;2023-04-03T01:55:49;97675.06;;;6.14;52.85
22580;BME280;11456;47.030;15.396;2023-04-03T01:58:16;97678.84;;;6.12;52.50
22580;BME280;11456;47.030;15.396;2023-04-03T02:00:43;97675.78;;;6.16;53.14
22580;BME280;11456;47.030;15.396;2023-04-03T02:03:09;97680.41;;;6.03;53.82
22580;BME280;11456;47.030;15.396;2023-04-03T02:05:37;97687.47;;;6.04;53.37
22580;BME280;11456;47.030;15.396;2023-04-03T02:08:04;97684.06;;;6.02;52.69
22580;BME280;11456;47.030;15.396;2023-04-03T02:10:31;97690.63;;;6.09;52.57
22580;BME280;11456;47.030;15.396;2023-04-03T02:12:57;97690.63;;;6.09;53.33
22580;BME280;11456;47.030;15.396;2023-04-03T02:15:24;97690.25;;;6.02;53.57
22580;BME280;11456;47.030;15.396;2023-04-03T02:17:51;97692.47;;;5.97;53.04
22580;BME280;11456;47.030;15.396;2023-04-03T02:20:19;97690.41;;;6.01;52.85
22580;BME280;11456;47.030;15.396;2023-04-03T02:22:45;97682.63;;;5.98;53.30
22580;BME280;11456;47.030;15.396;2023-04-03T02:25:12;97695.50;;;5.93;52.21
22580;BME280;11456;47.030;15.396;2023-04-03T02:27:39;97695.63;;;5.91;52.78
22580;BME280;11456;47.030;15.396;2023-04-03T02:30:06;97689.44;;;5.91;52.39
22580;BME280;11456;47.030;15.396;2023-04-03T02:32:33;97691.97;;;6.03;52.09
22580;BME280;11456;47.030;15.396;2023-04-03T02:35:01;97700.22;;;5.89;52.65
22580;BME280;11456;47.030;15.396;2023-04-03T02:37:28;97685.28;;;5.87;52.49
22580;BME280;11456;47.030;15.396;2023-04-03T02:39:55;97689.44;;;5.91;52.29
22580;BME280;11456;47.030;15.396;2023-04-03T02:42:21;97687.72;;;5.79;52.41
22580;BME280;11456;47.030;15.396;2023-04-03T02:44:47;97689.16;;;5.83;52.01
22580;BME280;11456;47.030;15.396;2023-04-03T02:47:14;97696.47;;;5.81;52.61
22580;BME280;11456;47.030;15.396;2023-04-03T02:49:41;97686.75;;;5.69;52.29
22580;BME280;11456;47.030;15.396;2023-04-03T02:52:09;97689.66;;;5.65;53.20
22580;BME280;11456;47.030;15.396;2023-04-03T02:54:37;97696.69;;;5.78;52.24
22580;BME280;11456;47.030;15.396;2023-04-03T02:57:06;97699.13;;;5.81;52.16
22580;BME280;11456;47.030;15.396;2023-04-03T02:59:35;97695.97;;;5.76;52.48
22580;BME280;11456;47.030;15.396;2023-04-03T03:02:02;97689.88;;;5.85;52.17
22580;BME280;11456;47.030;15.396;2023-04-03T03:04:29;97691.50;;;5.87;51.58
22580;BME280;11456;47.030;15.396;2023-04-03T03:06:55;97694.50;;;5.72;51.97
22580;BME280;11456;47.030;15.396;2023-04-03T03:09:22;97701.56;;;5.61;51.86
22580;BME280;11456;47.030;15.396;2023-04-03T03:11:49;97699.84;;;5.72;52.05
22580;BME280;11456;47.030;15.396;2023-04-03T03:14:15;97708.84;;;5.82;51.69
22580;BME280;11456;47.030;15.396;2023-04-03T03:16:42;97703.06;;;5.88;51.53
22580;BME280;11456;47.030;15.396;2023-04-03T03:19:08;97700.81;;;5.71;51.52
22580;BME280;11456;47.030;15.396;2023-04-03T03:21:35;97703.38;;;5.72;52.24
22580;BME280;11456;47.030;15.396;2023-04-03T03:24:02;97701.28;;;5.64;51.96
22580;BME280;11456;47.030;15.396;2023-04-03T03:26:29;97703.59;;;5.58;52.13
22580;BME280;11456;47.030;15.396;2023-04-03T03:28:55;97703.00;;;5.65;51.96
22580;BME280;11456;47.030;15.396;2023-04-03T03:31:22;97697.44;;;5.69;52.04
22580;BME280;11456;47.030;15.396;2023-04-03T03:33:48;97695.72;;;5.68;52.12
22580;BME280;11456;47.030;15.396;2023-04-03T03:36:15;97695.22;;;5.51;52.43
22580;BME280;11456;47.030;15.396;2023-04-03T03:38:42;97703.00;;;5.54;52.93
22580;BME280;11456;47.030;15.396;2023-04-03T03:41:09;97697.41;;;5.46;52.93
22580;BME280;11456;47.030;15.396;2023-04-03T03:43:36;97696.22;;;5.61;52.78
22580;BME280;11456;47.030;15.396;2023-04-03T03:46:04;97704.56;;;5.57;52.59
22580;BME280;11456;47.030;15.396;2023-04-03T03:48:31;97700.34;;;5.54;52.22
22580;BME280;11456;47.030;15.396;2023-04-03T03:50:57;97700.97;;;5.69;51.92
22580;BME280;11456;47.030;15.396;2023-04-03T03:53:28;97705.94;;;5.74;51.44
22580;BME280;11456;47.030;15.396;2023-04-03T03:55:59;97702.50;;;5.72;51.74
22580;BME280;11456;47.030;15.396;2023-04-03T03:58:28;97713.19;;;5.72;51.29
22580;BME280;11456;47.030;15.396;2023-04-03T04:00:55;97706.63;;;5.64;51.47
22580;BME280;11456;47.030;15.396;2023-04-03T04:03:21;97716.13;;;5.80;51.04
22580;BME280;11456;47.030;15.396;2023-04-03T04:05:50;97712.00;;;5.87;50.60
22580;BME280;11456;47.030;15.396;2023-04-03T04:08:17;97702.41;;;5.84;50.60
22580;BME280;11456;47.030;15.396;2023-04-03T04:10:44;97713.72;;;5.99;50.93
22580;BME280;11456;47.030;15.396;2023-04-03T04:13:13;97712.75;;;6.00;50.26
22580;BME280;11456;47.030;15.396;2023-04-03T04:15:40;97721.28;;;5.94;50.37
22580;BME280;11456;47.030;15.396;2023-04-03T04:18:07;97715.78;;;6.07;50.19
22580;BME280;11456;47.030;15.396;2023-04-03T04:20:33;97716.59;;;6.29;49.65
22580;BME280;11456;47.030;15.396;2023-04-03T04:23:00;97716.56;;;6.40;49.72
22580;BME280;11456;47.030;15.396;2023-04-03T04:25:28;97710.06;;;6.33;48.94
22580;BME280;11456;47.030;15.396;2023-04-03T04:27:55;97721.72;;;6.21;49.20
22580;BME280;11456;47.030;15.396;2023-04-03T04:30:21;97722.69;;;6.31;49.50
22580;BME280;11456;47.030;15.396;2023-04-03T04:32:49;97723.88;;;6.38;49.48
22580;BME280;11456;47.030;15.396;2023-04-03T04:35:16;97722.09;;;6.06;49.78
22580;BME280;11456;47.030;15.396;2023-04-03T04:37:46;97727.81;;;6.12;49.55
22580;BME280;11456;47.030;15.396;2023-04-03T04:40:12;97717.97;;;5.90;51.45
22580;BME280;11456;47.030;15.396;2023-04-03T04:42:39;97731.94;;;6.05;50.14
22580;BME280;11456;47.030;15.396;2023-04-03T04:45:06;97733.88;;;6.03;50.72
22580;BME280;11456;47.030;15.396;2023-04-03T04:47:35;97737.03;;;6.08;50.67
22580;BME280;11456;47.030;15.396;2023-04-03T04:50:01;97735.09;;;6.32;49.74
22580;BME280;11456;47.030;15.396;2023-04-03T04:52:30;97732.91;;;6.15;50.17
22580;BME280;11456;47.030;15.396;2023-04-03T04:54:57;97731.09;;;6.16;50.59
22580;BME280;11456;47.030;15.396;2023-04-03T04:57:23;97730.25;;;6.26;49.98
22580;BME280;11456;47.030;15.396;2023-04-03T04:59:50;97723.28;;;6.35;49.69
22580;BME280;11456;47.030;15.396;2023-04-03T05:02:17;97729.47;;;6.35;49.91
22580;BME280;11456;47.030;15.396;2023-04-03T05:04:44;97718.06;;;6.33;49.91
22580;BME280;11456;47.030;15.396;2023-04-03T05:07:17;97722.78;;;6.41;50.07
22580;BME280;11456;47.030;15.396;2023-04-03T05:09:44;97729.94;;;6.40;49.56
22580;BME280;11456;47.030;15.396;2023-04-03T05:12:12;97732.38;;;6.43;49.68
22580;BME280;11456;47.030;15.396;2023-04-03T05:14:45;97723.63;;;6.41;49.58
22580;BME280;11456;47.030;15.396;2023-04-03T05:17:12;97728.97;;;6.41;50.03
22580;BME280;11456;47.030;15.396;2023-04-03T05:19:43;97724.13;;;6.35;49.79
22580;BME280;11456;47.030;15.396;2023-04-03T05:22:10;97732.41;;;6.32;49.75
22580;BME280;11456;47.030;15.396;2023-04-03T05:24:37;97730.94;;;6.28;49.66
22580;BME280;11456;47.030;15.396;2023-04-03T05:27:04;97736.16;;;6.52;48.75
22580;BME280;11456;47.030;15.396;2023-04-03T05:29:34;97729.31;;;6.59;48.50
22580;BME280;11456;47.030;15.396;2023-04-03T05:32:03;97732.38;;;6.43;48.88
22580;BME280;11456;47.030;15.396;2023-04-03T05:34:29;97735.81;;;6.23;49.78
22580;BME280;11456;47.030;15.396;2023-04-03T05:36:56;97740.91;;;6.37;49.15
22580;BME280;11456;47.030;15.396;2023-04-03T05:39:24;97743.81;;;6.34;49.80
22580;BME280;11456;47.030;15.396;2023-04-03T05:41:51;97743.78;;;6.57;48.66
22580;BME280;11456;47.030;15.396;2023-04-03T05:44:18;97742.34;;;6.53;47.90
22580;BME280;11456;47.030;15.396;2023-04-03T05:46:46;97737.66;;;6.66;48.24
22580;BME280;11456;47.030;15.396;2023-04-03T05:49:13;97744.66;;;6.89;48.32
22580;BME280;11456;47.030;15.396;2023-04-03T05:51:39;97750.25;;;6.97;47.62
22580;BME280;11456;47.030;15.396;2023-04-03T05:54:17;97747.72;;;7.16;47.23
22580;BME280;11456;47.030;15.396;2023-04-03T05:56:44;97747.06;;;6.92;48.42
22580;BME280;11456;47.030;15.396;2023-04-03T05:59:11;97745.84;;;6.96;47.78
22580;BME280;11456;47.030;15.396;2023-04-03T06:01:38;97752.66;;;7.00;47.95
22580;BME280;11456;47.030;15.396;2023-04-03T06:04:05;97749.75;;;6.92;47.69
22580;BME280;11456;47.030;15.396;2023-04-03T06:06:46;97750.44;;;7.05;47.70
22580;BME280;11456;47.030;15.396;2023-04-03T06:09:14;97745.75;;;7.18;47.97
22580;BME280;11456;47.030;15.396;2023-04-03T06:11:42;97759.31;;;7.06;47.36
22580;BME280;11456;47.030;15.396;2023-04-03T06:14:09;97761.63;;;7.10;47.90
22580;BME280;11456;47.030;15.396;2023-04-03T06:16:36;97763.06;;;7.14;47.51
22580;BME280;11456;47.030;15.396;2023-04-03T06:19:09;97771.84;;;7.37;46.58
22580;BME280;11456;47.030;15.396;2023-04-03T06:21:38;97757.34;;;7.40;46.99
22580;BME280;11456;47.030;15.396;2023-04-03T06:24:06;97759.50;;;7.46;47.76
22580;BME280;11456;47.030;15.396;2023-04-03T06:26:33;97764.09;;;7.55;47.48
22580;BME280;11456;47.030;15.396;2023-04-03T06:29:00;97757.47;;;7.59;48.41
22580;BME280;11456;47.030;15.396;2023-04-03T06:31:27;97762.59;;;7.92;47.38
22580;BME280;11456;47.030;15.396;2023-04-03T06:33:54;97764.22;;;7.74;46.82
22580;BME280;11456;47.030;15.396;2023-04-03T06:36:21;97769.81;;;7.71;46.17
22580;BME280;11456;47.030;15.396;2023-04-03T06:38:48;97758.31;;;7.39;46.58
22580;BME280;11456;47.030;15.396;2023-04-03T06:41:15;97760.69;;;7.53;46.81
22580;BME280;11456;47.030;15.396;2023-04-03T06:43:45;97752.94;;;7.80;46.06
22580;BME280;11456;47.030;15.396;2023-04-03T06:46:15;97757.16;;;8.34;46.16
22580;BME280;11456;47.030;15.396;2023-04-03T06:48:43;97745.72;;;9.39;44.79
22580;BME280;11456;47.030;15.396;2023-04-03T06:51:20;97758.50;;;10.40;42.94
22580;BME280;11456;47.030;15.396;2023-04-03T06:53:49;97753.16;;;10.85;41.84
22580;BME280;11456;47.030;15.396;2023-04-03T06:56:16;97755.72;;;11.04;41.29
22580;BME280;11456;47.030;15.396;2023-04-03T06:58:44;97759.19;;;11.50;40.93
22580;BME280;11456;47.030;15.396;2023-04-03T07:01:11;97766.22;;;10.25;41.25
22580;BME280;11456;47.030;15.396;2023-04-03T07:03:38;97765.22;;;9.41;42.94
22580;BME280;11456;47.030;15.396;2023-04-03T07:06:05;97773.03;;;9.25;43.14
22580;BME280;11456;47.030;15.396;2023-04-03T07:08:33;97775.88;;;8.64;44.11
22580;BME280;11456;47.030;15.396;2023-04-03T07:11:00;97779.53;;;8.44;44.69
22580;BME280;11456;47.030;15.396;2023-04-03T07:13:26;97774.19;;;8.23;44.66
22580;BME280;11456;47.030;15.396;2023-04-03T07:15:53;97777.19;;;8.30;44.29
22580;BME280;11456;47.030;15.396;2023-04-03T07:18:19;97782.09;;;8.25;44.76
22580;BME280;11456;47.030;15.396;2023-04-03T07:20:47;97794.25;;;7.57;45.85
22580;BME280;11456;47.030;15.396;2023-04-03T07:23:14;97797.00;;;7.87;45.28
22580;BME280;11456;47.030;15.396;2023-04-03T07:25:45;97798.72;;;7.47;45.03
22580;BME280;11456;47.030;15.396;2023-04-03T07:28:12;97787.53;;;7.62;45.25
22580;BME280;11456;47.030;15.396;2023-04-03T07:30:52;97798.66;;;7.58;45.47
22580;BME280;11456;47.030;15.396;2023-04-03T07:33:20;97796.44;;;7.10;47.04
22580;BME280;11456;47.030;15.396;2023-04-03T07:35:47;97789.56;;;7.29;46.51
22580;BME280;11456;47.030;15.396;2023-04-03T07:38:14;97796.34;;;7.33;46.93
22580;BME280;11456;47.030;15.396;2023-04-03T07:40:40;97795.50;;;7.32;47.17
22580;BME280;11456;47.030;15.396;2023-04-03T07:43:11;97795.06;;;7.48;46.37
22580;BME280;11456;47.030;15.396;2023-04-03T07:45:38;97792.69;;;7.75;46.70
22580;BME280;11456;47.030;15.396;2023-04-03T07:48:05;97794.50;;;7.95;46.90
22580;BME280;11456;47.030;15.396;2023-04-03T07:50:31;97797.16;;;8.16;45.00
22580;BME280;11456;47.030;15.396;2023-04-03T07:52:58;97796.06;;;8.19;43.75
22580;BME280;11456;47.030;15.396;2023-04-03T07:55:25;97797.03;;;8.48;43.42
22580;BME280;11456;47.030;15.396;2023-04-03T07:57:52;97797.84;;;8.39;44.53
22580;BME280;11456;47.030;15.396;2023-04-03T08:00:18;97800.59;;;8.28;43.78
22580;BME280;11456;47.030;15.396;2023-04-03T08:02:46;97799.78;;;8.06;44.17
22580;BME280;11456;47.030;15.396;2023-04-03T08:05:18;97805.69;;;8.00;44.11
22580;BME280;11456;47.030;15.396;2023-04-03T08:07:45;97802.28;;;8.19;43.37
22580;BME280;11456;47.030;15.396;2023-04-03T08:10:13;97809.38;;;8.30;43.50
22580;BME280;11456;47.030;15.396;2023-04-03T08:12:40;97794.19;;;8.40;42.88
22580;BME280;11456;47.030;15.396;2023-04-03T08:15:07;97804.13;;;8.59;42.83
22580;BME280;11456;47.030;15.396;2023-04-03T08:17:34;97806.44;;;8.73;42.60
22580;BME280;11456;47.030;15.396;2023-04-03T08:20:01;97800.59;;;8.58;42.07
22580;BME280;11456;47.030;15.396;2023-04-03T08:22:27;97805.47;;;8.34;42.81
22580;BME280;11456;47.030;15.396;2023-04-03T08:24:54;97802.22;;;8.70;42.36
22580;BME280;11456;47.030;15.396;2023-04-03T08:27:25;97803.47;;;8.66;42.92
22580;BME280;11456;47.030;15.396;2023-04-03T08:29:54;97805.66;;;8.92;43.05
22580;BME280;11456;47.030;15.396;2023-04-03T08:32:20;97802.56;;;9.06;42.08
22580;BME280;11456;47.030;15.396;2023-04-03T08:34:47;97807.69;;;9.09;41.36
22580;BME280;11456;47.030;15.396;2023-04-03T08:37:13;97812.72;;;8.93;42.03
22580;BME280;11456;47.030;15.396;2023-04-03T08:39:42;97818.94;;;9.03;41.34
22580;BME280;11456;47.030;15.396;2023-04-03T08:47:35;97799.19;;;9.23;41.10
22580;BME280;11456;47.030;15.396;2023-04-03T08:50:05;97804.28;;;9.36;39.55
22580;BME280;11456;47.030;15.396;2023-04-03T08:52:38;97805.41;;;9.14;39.60
22580;BME280;11456;47.030;15.396;2023-04-03T08:57:51;97801.44;;;9.56;39.38
22580;BME280;11456;47.030;15.396;2023-04-03T09:00:21;97804.56;;;9.23;40.62
22580;BME280;11456;47.030;15.396;2023-04-03T09:02:50;97806.53;;;9.50;39.44
22580;BME280;11456;47.030;15.396;2023-04-03T09:05:26;97815.88;;;9.55;39.64
22580;BME280;11456;47.030;15.396;2023-04-03T09:07:58;97805.72;;;9.40;39.25
22580;BME280;11456;47.030;15.396;2023-04-03T09:10:27;97808.53;;;9.57;38.14
22580;BME280;11456;47.030;15.396;2023-04-03T09:12:59;97812.03;;;9.87;37.85
22580;BME280;11456;47.030;15.396;2023-04-03T09:15:27;97811.19;;;9.77;36.75
22580;BME280;11456;47.030;15.396;2023-04-03T09:18:19;97810.53;;;9.46;36.30
22580;BME280;11456;47.030;15.396;2023-04-03T09:23:33;97815.03;;;9.55;36.62
22580;BME280;11456;47.030;15.396;2023-04-03T09:26:04;97814.34;;;9.53;37.50
22580;BME280;11456;47.030;15.396;2023-04-03T09:28:34;97823.53;;;9.70;35.86
22580;BME280;11456;47.030;15.396;2023-04-03T09:31:16;97812.78;;;9.50;35.53
22580;BME280;11456;47.030;15.396;2023-04-03T09:33:45;97811.38;;;9.65;35.85
22580;BME280;11456;47.030;15.396;2023-04-03T09:36:12;97806.91;;;10.03;35.08
22580;BME280;11456;47.030;15.396;2023-04-03T09:38:39;97812.13;;;10.24;35.53
22580;BME280;11456;47.030;15.396;2023-04-03T09:41:06;97809.56;;;10.13;35.38
22580;BME280;11456;47.030;15.396;2023-04-03T09:43:34;97809.03;;;9.99;34.53
22580;BME280;11456;47.030;15.396;2023-04-03T09:46:18;97808.44;;;10.05;33.46
22580;BME280;11456;47.030;15.396;2023-04-03T09:48:55;97812.44;;;10.11;33.14
22580;BME280;11456;47.030;15.396;2023-04-03T09:51:33;97804.06;;;10.51;33.89
22580;BME280;11456;47.030;15.396;2023-04-03T09:54:00;97803.81;;;10.44;33.58
22580;BME280;11456;47.030;15.396;2023-04-03T09:56:50;97809.22;;;10.44;33.84
22580;BME280;11456;47.030;15.396;2023-04-03T09:59:17;97792.69;;;11.12;33.85
22580;BME280;11456;47.030;15.396;2023-04-03T10:01:56;97810.47;;;10.77;33.53
22580;BME280;11456;47.030;15.396;2023-04-03T10:04:23;97800.03;;;11.55;33.35
22580;BME280;11456;47.030;15.396;2023-04-03T10:06:52;97803.91;;;12.73;33.83
22580;BME280;11456;47.030;15.396;2023-04-03T10:09:20;97799.94;;;12.26;33.01
22580;BME280;11456;47.030;15.396;2023-04-03T10:14:28;97788.19;;;11.91;33.65
22580;BME280;11456;47.030;15.396;2023-04-03T10:16:58;97791.31;;;14.05;32.47
22580;BME280;11456;47.030;15.396;2023-04-03T10:25:29;97776.34;;;12.36;33.05
22580;BME280;11456;47.030;15.396;2023-04-03T10:28:10;97789.31;;;12.58;33.79
22580;BME280;11456;47.030;15.396;2023-04-03T10:41:16;97777.16;;;11.77;34.06
22580;BME280;11456;47.030;15.396;2023-04-03T10:43:54;97791.44;;;12.89;33.82
22580;BME280;11456;47.030;15.396;2023-04-03T10:49:23;97769.34;;;12.51;32.99
22580;BME280;11456;47.030;15.396;2023-04-03T10:51:55;97766.25;;;11.86;33.97
22580;BME280;11456;47.030;15.396;2023-04-03T10:55:18;97775.97;;;11.79;32.98
22580;BME280;11456;47.030;15.396;2023-04-03T10:57:12;97765.50;;;11.76;33.84
22580;BME280;11456;47.030;15.396;2023-04-03T10:59:56;97775.91;;;11.71;34.57
22580;BME280;11456;47.030;15.396;2023-04-03T11:02:25;97771.03;;;11.21;32.91
22580;BME280;11456;47.030;15.396;2023-04-03T11:05:01;97763.50;;;11.07;33.39
22580;BME280;11456;47.030;15.396;2023-04-03T11:07:38;97772.63;;;12.29;32.61
22580;BME280;11456;47.030;15.396;2023-04-03T11:12:46;97744.88;;;14.40;30.79
22580;BME280;11456;47.030;15.396;2023-04-03T11:15:15;97740.31;;;15.64;29.24
22580;BME280;11456;47.030;15.396;2023-04-03T11:17:53;97744.75;;;16.32;26.95
22580;BME280;11456;47.030;15.396;2023-04-03T11:20:30;97727.56;;;16.69;27.28
22580;BME280;11456;47.030;15.396;2023-04-03T11:23:01;97729.28;;;17.63;25.92
22580;BME280;11456;47.030;15.396;2023-04-03T11:25:31;97728.84;;;16.44;26.48
22580;BME280;11456;47.030;15.396;2023-04-03T11:28:03;97733.94;;;17.12;26.31
22580;BME280;11456;47.030;15.396;2023-04-03T11:30:34;97732.56;;;16.14;28.54
22580;BME280;11456;47.030;15.396;2023-04-03T11:35:47;97721.69;;;15.08;27.87
22580;BME280;11456;47.030;15.396;2023-04-03T11:38:23;97734.81;;;13.61;30.77
22580;BME280;11456;47.030;15.396;2023-04-03T11:40:53;97731.75;;;13.64;30.33
22580;BME280;11456;47.030;15.396;2023-04-03T11:43:28;97727.47;;;15.36;27.42
22580;BME280;11456;47.030;15.396;2023-04-03T11:46:03;97735.91;;;15.63;29.58
22580;BME280;11456;47.030;15.396;2023-04-03T11:51:00;97736.91;;;15.40;28.92
22580;BME280;11456;47.030;15.396;2023-04-03T11:55:55;97723.84;;;15.66;27.83
22580;BME280;11456;47.030;15.396;2023-04-03T11:58:23;97723.13;;;16.24;27.15
22580;BME280;11456;47.030;15.396;2023-04-03T12:00:51;97719.19;;;16.86;26.17
22580;BME280;11456;47.030;15.396;2023-04-03T12:08:28;97720.78;;;13.66;29.13
22580;BME280;11456;47.030;15.396;2023-04-03T12:29:21;97685.56;;;17.08;25.89
22580;BME280;11456;47.030;15.396;2023-04-03T12:32:40;97694.88;;;17.41;26.70
22580;BME280;11456;47.030;15.396;2023-04-03T12:34:53;97697.59;;;18.05;26.91
22580;BME280;11456;47.030;15.396;2023-04-03T12:42:56;97696.91;;;16.97;27.33
22580;BME280;11456;47.030;15.396;2023-04-03T12:45:29;97699.94;;;17.87;24.57
22580;BME280;11456;47.030;15.396;2023-04-03T12:48:08;97680.22;;;16.64;25.48
22580;BME280;11456;47.030;15.396;2023-04-03T12:50:38;97695.72;;;14.52;27.44
22580;BME280;11456;47.030;15.396;2023-04-03T12:53:11;97689.09;;;14.85;28.58
22580;BME280;11456;47.030;15.396;2023-04-03T12:55:38;97676.97;;;15.72;26.54
22580;BME280;11456;47.030;15.396;2023-04-03T12:58:15;97679.69;;;15.04;26.07
22580;BME280;11456;47.030;15.396;2023-04-03T13:00:43;97685.78;;;13.48;27.98
22580;BME280;11456;47.030;15.396;2023-04-03T13:03:19;97678.75;;;14.02;28.02
22580;BME280;11456;47.030;15.396;2023-04-03T13:05:47;97687.84;;;14.26;28.21
22580;BME280;11456;47.030;15.396;2023-04-03T13:08:22;97676.47;;;15.46;26.08
22580;BME280;11456;47.030;15.396;2023-04-03T13:10:53;97678.13;;;16.07;26.75
22580;BME280;11456;47.030;15.396;2023-04-03T13:13:21;97662.16;;;15.52;26.09
22580;BME280;11456;47.030;15.396;2023-04-03T13:15:49;97662.03;;;13.83;27.76
22580;BME280;11456;47.030;15.396;2023-04-03T13:18:33;97661.72;;;16.00;26.22
22580;BME280;11456;47.030;15.396;2023-04-03T13:21:03;97663.91;;;15.53;26.94
22580;BME280;11456;47.030;15.396;2023-04-03T13:23:31;97659.09;;;16.51;27.22
22580;BME280;11456;47.030;15.396;2023-04-03T13:25:59;97656.34;;;15.17;26.31
22580;BME280;11456;47.030;15.396;2023-04-03T13:28:30;97664.88;;;14.05;27.75
22580;BME280;11456;47.030;15.396;2023-04-03T13:33:30;97666.50;;;13.59;28.75
22580;BME280;11456;47.030;15.396;2023-04-03T13:36:00;97666.97;;;13.06;27.55
22580;BME280;11456;47.030;15.396;2023-04-03T13:38:29;97668.50;;;12.42;29.68
22580;BME280;11456;47.030;15.396;2023-04-03T13:41:01;97660.84;;;11.88;29.96
22580;BME280;11456;47.030;15.396;2023-04-03T13:43:35;97667.06;;;11.62;30.54
22580;BME280;11456;47.030;15.396;2023-04-03T13:46:25;97663.41;;;12.90;28.85
22580;BME280;11456;47.030;15.396;2023-04-03T13:48:50;97665.84;;;13.17;29.08
22580;BME280;11456;47.030;15.396;2023-04-03T13:51:18;97664.69;;;12.61;29.60
22580;BME280;11456;47.030;15.396;2023-04-03T13:56:18;97668.34;;;12.44;30.18
22580;BME280;11456;47.030;15.396;2023-04-03T14:01:42;97674.09;;;13.72;29.08
22580;BME280;11456;47.030;15.396;2023-04-03T14:04:11;97662.19;;;13.89;28.48
22580;BME280;11456;47.030;15.396;2023-04-03T14:06:38;97647.59;;;14.54;28.70
22580;BME280;11456;47.030;15.396;2023-04-03T14:09:04;97650.56;;;14.67;27.73
22580;BME280;11456;47.030;15.396;2023-04-03T14:11:31;97643.38;;;14.59;28.33
22580;BME280;11456;47.030;15.396;2023-04-03T14:14:00;97644.66;;;15.77;26.27
22580;BME280;11456;47.030;15.396;2023-04-03T14:16:29;97643.41;;;14.35;26.28
22580;BME280;11456;47.030;15.396;2023-04-03T14:18:57;97645.13;;;14.75;28.14
22580;BME280;11456;47.030;15.396;2023-04-03T14:21:23;97648.28;;;15.70;26.11
22580;BME280;11456;47.030;15.396;2023-04-03T14:23:50;97642.53;;;15.04;25.99
22580;BME280;11456;47.030;15.396;2023-04-03T14:26:18;97636.50;;;14.94;26.92
22580;BME280;11456;47.030;15.396;2023-04-03T14:28:48;97642.91;;;14.78;28.18
22580;BME280;11456;47.030;15.396;2023-04-03T14:31:15;97638.50;;;14.47;26.72